Time;durP1;ratioP1;P1;durP2;ratioP2;P2;SDS_P1;SDS_P2;PMS_P1;PMS_P2;Temp;Humidity;BMP_temperature;BMP_pressure;BME280_temperature;BME280_humidity;BME280_pressure;Samples;Min_cycle;Max_cycle;Signal;HPM_P1;HPM_P2
2022/09/10 00:01:46;;;;;;;8.15;2.90;;;15.30;99.90;;;;;;5055941;28;20033;-57
2022/09/10 00:04:14;;;;;;;9.23;3.65;;;15.30;99.90;;;;;;5054902;28;20047;-58
2022/09/10 00:06:40;;;;;;;12.35;3.83;;;15.40;99.90;;;;;;5046127;28;20404;-57
2022/09/10 00:09:07;;;;;;;7.95;3.70;;;15.40;99.90;;;;;;5034581;28;20366;-58
2022/09/10 00:11:34;;;;;;;8.80;3.75;;;15.40;99.90;;;;;;5036550;28;20032;-58
2022/09/10 00:14:01;;;;;;;9.38;4.13;;;15.40;99.90;;;;;;5037001;28;20029;-58
2022/09/10 00:16:28;;;;;;;8.13;3.40;;;15.40;99.90;;;;;;5060619;28;20032;-59
2022/09/10 00:18:53;;;;;;;11.52;4.60;;;15.40;99.90;;;;;;5043163;28;20477;-59
2022/09/10 00:21:20;;;;;;;8.73;4.78;;;15.40;99.90;;;;;;5042301;28;20029;-58
2022/09/10 00:23:47;;;;;;;10.25;6.35;;;15.40;99.90;;;;;;5036729;28;20481;-58
2022/09/10 00:26:20;;;;;;;8.88;5.00;;;15.40;99.90;;;;;;5041009;28;20030;-58
2022/09/10 00:28:47;;;;;;;7.80;5.20;;;15.50;99.90;;;;;;5044748;28;20032;-59
2022/09/10 00:31:14;;;;;;;11.18;6.00;;;15.40;99.90;;;;;;5036915;28;20033;-58
2022/09/10 00:33:40;;;;;;;9.98;5.75;;;15.50;99.90;;;;;;5032202;28;20029;-58
2022/09/10 00:36:20;;;;;;;10.63;5.70;;;15.40;99.90;;;;;;5040684;28;20024;-58
2022/09/10 00:38:46;;;;;;;9.98;5.65;;;15.50;99.90;;;;;;5046257;28;20045;-58
2022/09/10 00:41:13;;;;;;;12.35;6.82;;;15.50;99.90;;;;;;5045179;28;20056;-58
2022/09/10 00:44:06;;;;;;;14.35;7.75;;;15.50;99.90;;;;;;5042314;28;20392;-58
2022/09/10 00:46:46;;;;;;;12.05;7.72;;;15.50;99.90;;;;;;5040576;28;20515;-58
2022/09/10 00:49:21;;;;;;;13.13;8.90;;;15.50;99.90;;;;;;5049668;28;20028;-58
2022/09/10 00:51:50;;;;;;;13.50;8.57;;;15.40;99.90;;;;;;5046689;28;20595;-58
2022/09/10 00:54:19;;;;;;;12.48;8.20;;;15.40;99.90;;;;;;5044057;28;20042;-58
2022/09/10 00:56:45;;;;;;;13.23;8.57;;;15.40;99.90;;;;;;5039836;28;20045;-58
2022/09/10 00:59:15;;;;;;;13.48;9.13;;;15.40;99.90;;;;;;5042424;28;20033;-59
2022/09/10 01:01:42;;;;;;;15.13;9.55;;;15.50;99.90;;;;;;5045419;28;20026;-58
2022/09/10 01:04:09;;;;;;;13.48;8.68;;;15.50;99.90;;;;;;5042737;28;20108;-62
2022/09/10 01:06:36;;;;;;;16.25;10.32;;;15.50;99.90;;;;;;5052005;28;20020;-58
2022/09/10 01:09:02;;;;;;;18.73;10.73;;;15.50;99.90;;;;;;5047037;28;20029;-58
2022/09/10 01:11:59;;;;;;;16.25;10.82;;;15.50;99.90;;;;;;5040069;28;20108;-58
2022/09/10 01:15:06;;;;;;;12.73;9.63;;;15.50;99.90;;;;;;5044131;28;20025;-59
2022/09/10 01:17:40;;;;;;;16.15;10.63;;;15.50;99.90;;;;;;5042125;28;20106;-58
2022/09/10 01:20:18;;;;;;;16.75;11.45;;;15.50;99.90;;;;;;5044637;28;20060;-58
2022/09/10 01:23:10;;;;;;;13.87;11.00;;;15.50;99.90;;;;;;5047537;28;20568;-58
2022/09/10 01:26:03;;;;;;;13.00;10.73;;;15.50;99.90;;;;;;5049426;28;20768;-58
2022/09/10 01:28:55;;;;;;;16.45;11.10;;;15.50;99.90;;;;;;5049586;28;20047;-57
2022/09/10 01:31:32;;;;;;;15.45;10.30;;;15.50;99.90;;;;;;5047404;28;20401;-58
2022/09/10 01:34:15;;;;;;;17.75;10.93;;;15.50;99.90;;;;;;5042915;28;20493;-58
2022/09/10 01:36:46;;;;;;;12.55;10.45;;;15.50;99.90;;;;;;5059686;28;20034;-58
2022/09/10 01:39:14;;;;;;;16.83;12.00;;;15.50;99.90;;;;;;5044095;28;20493;-58
2022/09/10 01:41:39;;;;;;;12.27;10.02;;;15.50;99.90;;;;;;5039189;28;20112;-57
2022/09/10 01:44:09;;;;;;;19.95;11.27;;;15.50;99.90;;;;;;5035906;28;20139;-58
2022/09/10 01:46:53;;;;;;;15.05;10.65;;;15.50;99.90;;;;;;5043353;28;20469;-58
2022/09/10 01:49:45;;;;;;;13.93;10.27;;;15.50;99.90;;;;;;5047063;28;20482;-57
2022/09/10 01:52:25;;;;;;;16.35;9.70;;;15.50;99.90;;;;;;5046184;28;20033;-58
2022/09/10 01:55:02;;;;;;;14.52;9.75;;;15.50;99.90;;;;;;5041977;28;20025;-57
2022/09/10 01:58:08;;;;;;;16.65;11.23;;;15.50;99.90;;;;;;5046873;28;20029;-58
2022/09/10 02:00:37;;;;;;;16.88;10.55;;;15.50;99.90;;;;;;5026743;28;20033;-58
2022/09/10 02:03:10;;;;;;;14.95;10.82;;;15.50;99.90;;;;;;5045094;28;20109;-58
2022/09/10 02:05:40;;;;;;;15.98;10.30;;;15.50;99.90;;;;;;5049106;28;20029;-57
2022/09/10 02:08:22;;;;;;;13.20;9.60;;;15.50;99.90;;;;;;5047330;28;20604;-58
2022/09/10 02:10:59;;;;;;;15.02;9.73;;;15.50;99.90;;;;;;5039126;28;20412;-58
2022/09/10 02:13:28;;;;;;;16.33;10.23;;;15.50;99.90;;;;;;5038254;28;20493;-58
2022/09/10 02:15:55;;;;;;;17.63;10.10;;;15.50;99.90;;;;;;5037551;28;20473;-58
2022/09/10 02:18:22;;;;;;;15.43;9.90;;;15.50;99.90;;;;;;5040886;28;20096;-57
2022/09/10 02:20:50;;;;;;;14.82;10.38;;;15.50;99.90;;;;;;5042354;28;20063;-57
2022/09/10 02:23:21;;;;;;;14.55;10.88;;;15.50;99.90;;;;;;5037863;28;20025;-58
2022/09/10 02:25:48;;;;;;;17.35;12.05;;;15.50;99.90;;;;;;5043477;28;20081;-58
2022/09/10 02:28:13;;;;;;;19.17;10.98;;;15.50;99.90;;;;;;5046684;28;20029;-58
2022/09/10 02:30:39;;;;;;;12.52;10.02;;;15.50;99.90;;;;;;5038503;28;20036;-58
2022/09/10 02:33:05;;;;;;;16.17;11.25;;;15.50;99.90;;;;;;5040537;28;20020;-58
2022/09/10 02:35:30;;;;;;;17.88;11.88;;;15.50;99.90;;;;;;5045763;28;20025;-58
2022/09/10 02:37:57;;;;;;;15.40;11.25;;;15.40;99.90;;;;;;5041519;28;20028;-58
2022/09/10 02:40:23;;;;;;;14.02;11.05;;;15.40;99.90;;;;;;5040079;28;20021;-58
2022/09/10 02:42:49;;;;;;;14.45;11.10;;;15.40;99.90;;;;;;5043010;28;20025;-58
2022/09/10 02:45:14;;;;;;;15.30;10.98;;;15.40;99.90;;;;;;5039372;28;20436;-58
2022/09/10 02:47:40;;;;;;;15.65;11.25;;;15.40;99.90;;;;;;5038246;28;20853;-58
2022/09/10 02:50:08;;;;;;;12.65;10.68;;;15.40;99.90;;;;;;5043902;28;20028;-58
2022/09/10 02:52:34;;;;;;;17.38;11.30;;;15.40;99.90;;;;;;5044825;28;20547;-58
2022/09/10 02:55:00;;;;;;;16.75;12.82;;;15.40;99.90;;;;;;5039954;28;20040;-58
2022/09/10 02:57:26;;;;;;;14.68;12.60;;;15.40;99.90;;;;;;5046013;28;20048;-58
2022/09/10 02:59:55;;;;;;;14.90;12.77;;;15.40;99.90;;;;;;5035884;28;20397;-57
2022/09/10 03:02:20;;;;;;;16.27;12.50;;;15.40;99.90;;;;;;5038741;28;20067;-57
2022/09/10 03:04:51;;;;;;;19.67;12.40;;;15.40;99.90;;;;;;5036728;28;20476;-58
2022/09/10 03:07:19;;;;;;;15.55;12.90;;;15.40;99.90;;;;;;5047074;28;20028;-58
2022/09/10 03:09:45;;;;;;;16.83;13.18;;;15.40;99.90;;;;;;5037759;28;20025;-57
2022/09/10 03:12:11;;;;;;;16.80;13.05;;;15.40;99.90;;;;;;5038940;28;20488;-59
2022/09/10 03:14:37;;;;;;;16.33;13.07;;;15.40;99.90;;;;;;5037372;28;20029;-58
2022/09/10 03:17:02;;;;;;;17.73;12.73;;;15.40;99.90;;;;;;5037130;28;20036;-58
2022/09/10 03:19:28;;;;;;;16.77;14.02;;;15.50;99.90;;;;;;5033714;28;20060;-57
2022/09/10 03:21:53;;;;;;;18.67;13.40;;;15.50;99.90;;;;;;5036313;28;20032;-58
2022/09/10 03:24:19;;;;;;;19.95;14.15;;;15.50;99.90;;;;;;5028716;28;20030;-58
2022/09/10 03:26:45;;;;;;;18.63;13.88;;;15.50;99.90;;;;;;5034860;28;20025;-58
2022/09/10 03:29:11;;;;;;;21.73;14.68;;;15.50;99.90;;;;;;5043021;28;20027;-57
2022/09/10 03:31:36;;;;;;;19.15;14.45;;;15.50;99.90;;;;;;5049343;28;20032;-58
2022/09/10 03:34:02;;;;;;;19.48;15.95;;;15.50;99.90;;;;;;5036976;28;20078;-57
2022/09/10 03:36:30;;;;;;;16.80;15.10;;;15.50;99.90;;;;;;5043504;28;20028;-58
2022/09/10 03:38:57;;;;;;;22.02;16.15;;;15.50;99.90;;;;;;5039945;28;20528;-57
2022/09/10 03:41:23;;;;;;;20.27;15.15;;;15.50;99.90;;;;;;5032411;28;20392;-58
2022/09/10 03:43:48;;;;;;;19.88;15.20;;;15.50;99.90;;;;;;5042132;28;20480;-57
2022/09/10 03:46:14;;;;;;;20.88;16.58;;;15.50;99.90;;;;;;5037574;28;20031;-58
2022/09/10 03:48:42;;;;;;;23.05;17.05;;;15.50;99.90;;;;;;5039823;28;20017;-58
2022/09/10 03:51:09;;;;;;;21.55;15.18;;;15.60;99.90;;;;;;5059144;28;20102;-58
2022/09/10 03:53:35;;;;;;;19.05;15.25;;;15.60;99.90;;;;;;5041263;28;20057;-58
2022/09/10 03:56:07;;;;;;;21.40;16.67;;;15.60;99.90;;;;;;5036752;28;20433;-57
2022/09/10 03:58:33;;;;;;;17.08;14.55;;;15.60;99.90;;;;;;5036742;28;20025;-58
2022/09/10 04:00:58;;;;;;;19.67;15.60;;;15.60;99.90;;;;;;5036799;28;20025;-57
2022/09/10 04:03:24;;;;;;;18.65;14.80;;;15.60;99.90;;;;;;5039284;28;20029;-58
2022/09/10 04:05:50;;;;;;;18.48;14.98;;;15.60;99.90;;;;;;5037475;28;20083;-58
2022/09/10 04:08:15;;;;;;;18.90;15.52;;;15.60;99.90;;;;;;5042840;28;20013;-58
2022/09/10 04:10:43;;;;;;;17.02;14.40;;;15.60;99.90;;;;;;5043917;28;20108;-58
2022/09/10 04:13:09;;;;;;;20.38;16.05;;;15.60;99.90;;;;;;5037840;28;20029;-57
2022/09/10 04:15:35;;;;;;;21.50;15.15;;;15.70;99.90;;;;;;5040338;28;20029;-58
2022/09/10 04:18:00;;;;;;;18.20;15.73;;;15.60;99.90;;;;;;5036622;28;20021;-58
2022/09/10 04:20:26;;;;;;;21.55;16.38;;;15.70;99.90;;;;;;5040051;28;20033;-58
2022/09/10 04:22:53;;;;;;;21.58;15.40;;;15.70;99.90;;;;;;5041378;28;20021;-57
2022/09/10 04:25:19;;;;;;;18.08;16.00;;;15.70;99.90;;;;;;5045044;28;20021;-58
2022/09/10 04:27:46;;;;;;;16.70;14.85;;;15.70;99.90;;;;;;5043772;28;20042;-59
2022/09/10 04:30:16;;;;;;;21.15;16.45;;;15.70;99.90;;;;;;5058930;28;20066;-58
2022/09/10 04:32:43;;;;;;;18.42;16.05;;;15.70;99.90;;;;;;5046298;28;20039;-57
2022/09/10 04:35:08;;;;;;;22.20;17.00;;;15.70;99.90;;;;;;5043411;28;20029;-58
2022/09/10 04:37:34;;;;;;;17.70;15.45;;;15.70;99.90;;;;;;5040083;28;20091;-58
2022/09/10 04:39:59;;;;;;;17.80;15.52;;;15.80;99.90;;;;;;5045423;28;20045;-57
2022/09/10 04:42:25;;;;;;;17.63;15.77;;;15.70;99.90;;;;;;5055869;28;20029;-58
2022/09/10 04:44:50;;;;;;;20.20;15.13;;;15.80;99.90;;;;;;5048694;28;20025;-58
2022/09/10 04:47:17;;;;;;;17.92;15.65;;;15.80;99.90;;;;;;5048564;28;20021;-58
2022/09/10 04:49:42;;;;;;;17.48;14.98;;;15.80;99.90;;;;;;5040376;28;20033;-58
2022/09/10 04:52:10;;;;;;;18.08;15.82;;;15.80;99.90;;;;;;5046316;28;20104;-57
2022/09/10 04:54:36;;;;;;;17.60;15.80;;;15.80;99.90;;;;;;5041819;28;20036;-57
2022/09/10 04:57:03;;;;;;;15.85;14.23;;;15.80;99.90;;;;;;5042429;28;20025;-58
2022/09/10 04:59:36;;;;;;;17.40;14.48;;;15.80;99.90;;;;;;5047875;28;20028;-58
2022/09/10 05:02:10;;;;;;;19.27;15.93;;;15.80;99.90;;;;;;5045528;28;20025;-57
2022/09/10 05:04:38;;;;;;;16.02;14.35;;;15.80;99.90;;;;;;5041429;28;20025;-58
2022/09/10 05:07:04;;;;;;;16.67;14.93;;;15.80;99.90;;;;;;5037138;28;20389;-57
2022/09/10 05:09:30;;;;;;;16.38;14.77;;;15.80;99.90;;;;;;5047586;28;20075;-58
2022/09/10 05:11:56;;;;;;;17.80;15.48;;;15.80;99.90;;;;;;5043814;28;20061;-58
2022/09/10 05:14:23;;;;;;;18.42;16.50;;;15.80;99.90;;;;;;5047492;28;20075;-57
2022/09/10 05:16:49;;;;;;;18.35;16.05;;;15.80;99.90;;;;;;5045345;28;20024;-58
2022/09/10 05:19:16;;;;;;;19.38;16.88;;;15.80;99.90;;;;;;5041044;28;20028;-58
2022/09/10 05:21:47;;;;;;;18.92;16.20;;;15.80;99.90;;;;;;5043169;28;20031;-57
2022/09/10 05:24:13;;;;;;;17.60;15.70;;;15.80;99.90;;;;;;5043742;28;20425;-58
2022/09/10 05:26:47;;;;;;;19.95;17.25;;;15.80;99.90;;;;;;5044852;28;20021;-57
2022/09/10 05:29:12;;;;;;;23.10;18.38;;;15.70;99.90;;;;;;5039812;28;20068;-57
2022/09/10 05:31:39;;;;;;;19.08;17.17;;;15.70;99.90;;;;;;5036504;28;20049;-58
2022/09/10 05:34:05;;;;;;;22.67;17.80;;;15.70;99.90;;;;;;5050190;28;20020;-58
2022/09/10 05:36:33;;;;;;;19.15;16.20;;;15.70;99.90;;;;;;5041689;28;20477;-58
2022/09/10 05:38:59;;;;;;;20.08;16.55;;;15.60;99.90;;;;;;5050699;28;20491;-58
2022/09/10 05:41:38;;;;;;;19.45;17.45;;;15.70;99.90;;;;;;5038657;28;20021;-57
2022/09/10 05:44:09;;;;;;;23.10;18.23;;;15.60;99.90;;;;;;5053248;28;20021;-58
2022/09/10 05:46:34;;;;;;;19.85;17.20;;;15.60;99.90;;;;;;5052965;28;20720;-58
2022/09/10 05:49:00;;;;;;;23.95;18.13;;;15.60;99.90;;;;;;5054010;28;20025;-58
2022/09/10 05:51:39;;;;;;;22.88;18.20;;;15.60;99.90;;;;;;5051117;28;20026;-57
2022/09/10 05:54:04;;;;;;;23.95;18.50;;;15.60;99.90;;;;;;5052905;28;20059;-57
2022/09/10 05:56:30;;;;;;;23.40;20.27;;;15.60;99.90;;;;;;5052060;28;20378;-57
2022/09/10 05:58:56;;;;;;;23.92;18.83;;;15.60;99.90;;;;;;5054069;28;20025;-57
2022/09/10 06:01:22;;;;;;;22.73;19.00;;;15.60;99.90;;;;;;5047569;28;20024;-57
2022/09/10 06:03:50;;;;;;;24.52;18.20;;;15.60;99.90;;;;;;5050768;28;20025;-57
2022/09/10 06:06:16;;;;;;;26.15;18.40;;;15.70;99.90;;;;;;5050794;28;20492;-58
2022/09/10 06:08:54;;;;;;;26.10;18.88;;;15.70;99.90;;;;;;5049723;28;20025;-58
2022/09/10 06:11:22;;;;;;;19.33;17.42;;;15.70;99.90;;;;;;5052132;28;20503;-57
2022/09/10 06:13:48;;;;;;;20.58;18.38;;;15.70;99.90;;;;;;5028058;28;20033;-57
2022/09/10 06:16:15;;;;;;;20.88;18.30;;;15.70;99.90;;;;;;5035023;28;20457;-58
2022/09/10 06:18:41;;;;;;;21.77;18.00;;;15.70;99.90;;;;;;5053360;28;20033;-57
2022/09/10 06:21:17;;;;;;;22.40;18.75;;;15.70;99.90;;;;;;5051883;28;20352;-58
2022/09/10 06:23:44;;;;;;;25.70;19.40;;;15.70;99.90;;;;;;5050702;28;20060;-57
2022/09/10 06:26:18;;;;;;;24.48;19.65;;;15.70;99.90;;;;;;5045445;28;20024;-57
2022/09/10 06:28:45;;;;;;;22.13;19.70;;;15.80;99.90;;;;;;5037673;28;20021;-57
2022/09/10 06:31:15;;;;;;;25.67;19.02;;;15.80;99.90;;;;;;5050849;28;20025;-57
2022/09/10 06:33:41;;;;;;;25.33;21.23;;;15.80;99.90;;;;;;5045044;28;20104;-57
2022/09/10 06:36:08;;;;;;;23.73;20.98;;;15.80;99.90;;;;;;5043845;28;20020;-58
2022/09/10 06:38:35;;;;;;;26.00;20.67;;;15.80;99.90;;;;;;5037471;28;20041;-57
2022/09/10 06:41:21;;;;;;;23.08;18.75;;;15.80;99.90;;;;;;5042260;28;20017;-58
2022/09/10 06:43:47;;;;;;;26.30;20.15;;;15.90;99.90;;;;;;5051739;28;20032;-57
2022/09/10 06:46:15;;;;;;;21.55;19.27;;;15.90;99.90;;;;;;5045249;28;20025;-57
2022/09/10 06:48:41;;;;;;;23.45;19.52;;;15.90;99.90;;;;;;5041661;28;20469;-57
2022/09/10 06:51:08;;;;;;;25.92;21.13;;;16.00;99.90;;;;;;5051395;28;20025;-57
2022/09/10 06:53:35;;;;;;;24.45;19.27;;;16.00;99.90;;;;;;5046909;28;20121;-58
2022/09/10 06:56:02;;;;;;;25.85;20.70;;;16.00;99.90;;;;;;5048499;28;20045;-57
2022/09/10 06:58:30;;;;;;;21.45;19.17;;;16.00;99.90;;;;;;5048606;28;20608;-57
2022/09/10 07:00:55;;;;;;;24.15;21.27;;;16.00;99.90;;;;;;5047524;28;20415;-58
2022/09/10 07:03:21;;;;;;;22.02;19.42;;;16.10;99.90;;;;;;5051183;28;20021;-57
2022/09/10 07:05:48;;;;;;;23.27;20.48;;;16.10;99.90;;;;;;5044974;28;20029;-57
2022/09/10 07:08:16;;;;;;;22.70;19.27;;;16.10;99.90;;;;;;5033767;28;20041;-57
2022/09/10 07:10:44;;;;;;;20.73;18.15;;;16.20;99.90;;;;;;5049454;28;20017;-57
2022/09/10 07:13:12;;;;;;;20.35;18.05;;;16.20;99.90;;;;;;5046070;28;20033;-58
2022/09/10 07:15:45;;;;;;;22.10;19.67;;;16.30;99.90;;;;;;5051580;28;20056;-57
2022/09/10 07:18:13;;;;;;;20.55;17.52;;;16.30;99.90;;;;;;5050823;28;20489;-58
2022/09/10 07:20:47;;;;;;;20.67;18.50;;;16.40;99.90;;;;;;5049100;28;20035;-58
2022/09/10 07:23:15;;;;;;;18.67;16.88;;;16.40;99.90;;;;;;5047061;28;20024;-58
2022/09/10 07:25:40;;;;;;;20.98;17.63;;;16.50;99.90;;;;;;5047664;28;20012;-58
2022/09/10 07:28:12;;;;;;;17.40;15.55;;;16.50;99.90;;;;;;5034719;28;20497;-58
2022/09/10 07:30:38;;;;;;;17.30;15.50;;;16.50;99.90;;;;;;5048236;28;20029;-58
2022/09/10 07:33:04;;;;;;;18.05;16.25;;;16.50;99.90;;;;;;5045420;28;20481;-57
2022/09/10 07:35:33;;;;;;;20.42;18.25;;;16.50;99.90;;;;;;5048105;28;20039;-57
2022/09/10 07:37:59;;;;;;;17.35;15.55;;;16.50;99.90;;;;;;5041713;28;20026;-57
2022/09/10 07:40:26;;;;;;;19.33;17.52;;;16.50;99.90;;;;;;5048658;28;20066;-57
2022/09/10 07:43:07;;;;;;;19.65;17.58;;;16.50;99.90;;;;;;5050975;28;20554;-57
2022/09/10 07:45:37;;;;;;;18.67;16.67;;;16.50;99.90;;;;;;5044795;28;20401;-58
2022/09/10 07:48:03;;;;;;;19.13;17.33;;;16.50;99.90;;;;;;5045572;28;20489;-59
2022/09/10 07:50:28;;;;;;;17.38;15.77;;;16.60;99.90;;;;;;5049657;28;20033;-57
2022/09/10 07:52:54;;;;;;;18.77;17.02;;;16.60;99.90;;;;;;5050664;28;20036;-58
2022/09/10 07:55:20;;;;;;;17.42;15.73;;;16.70;99.90;;;;;;5052002;28;20029;-58
2022/09/10 07:57:45;;;;;;;16.05;14.50;;;16.80;99.90;;;;;;5049936;28;20025;-58
2022/09/10 08:00:13;;;;;;;14.43;13.13;;;16.90;99.90;;;;;;5047241;28;20055;-58
2022/09/10 08:02:41;;;;;;;13.27;11.98;;;16.90;99.90;;;;;;5054860;28;20104;-59
2022/09/10 08:05:09;;;;;;;15.68;14.18;;;16.90;99.90;;;;;;5055453;28;20013;-57
2022/09/10 08:07:45;;;;;;;16.33;14.70;;;16.90;99.90;;;;;;5055756;28;20521;-58
2022/09/10 08:10:12;;;;;;;16.40;14.75;;;16.90;99.90;;;;;;5050260;28;20026;-58
2022/09/10 08:12:39;;;;;;;16.02;14.63;;;16.90;99.90;;;;;;5041162;28;20037;-58
2022/09/10 08:15:09;;;;;;;16.23;14.55;;;17.00;99.90;;;;;;5039856;28;20080;-58
2022/09/10 08:17:35;;;;;;;13.88;12.68;;;17.00;99.90;;;;;;5055737;28;20056;-58
2022/09/10 08:20:04;;;;;;;17.45;15.63;;;17.10;99.90;;;;;;5052381;28;20022;-59
2022/09/10 08:22:30;;;;;;;14.47;12.97;;;17.20;99.90;;;;;;5048769;28;20036;-58
2022/09/10 08:24:56;;;;;;;13.05;11.75;;;17.40;99.90;;;;;;5048657;28;20021;-58
2022/09/10 08:27:21;;;;;;;15.45;14.15;;;17.60;99.90;;;;;;5047203;28;20025;-58
2022/09/10 08:29:47;;;;;;;15.20;13.65;;;17.70;99.90;;;;;;5040060;28;20040;-58
2022/09/10 08:32:12;;;;;;;17.42;15.82;;;17.70;99.90;;;;;;5046749;28;20086;-58
2022/09/10 08:34:42;;;;;;;14.50;13.20;;;17.80;99.90;;;;;;5047098;28;20037;-58
2022/09/10 08:37:17;;;;;;;17.70;16.10;;;17.80;99.90;;;;;;5051334;28;20040;-58
2022/09/10 08:39:43;;;;;;;16.95;15.27;;;17.80;99.90;;;;;;5045616;28;20045;-58
2022/09/10 08:42:21;;;;;;;16.27;14.77;;;17.70;99.90;;;;;;5050858;28;20032;-58
2022/09/10 08:44:54;;;;;;;13.95;12.55;;;17.80;99.90;;;;;;5050263;28;20021;-57
2022/09/10 08:47:48;;;;;;;16.00;14.50;;;17.80;99.90;;;;;;5050741;28;20106;-58
2022/09/10 08:50:39;;;;;;;13.60;12.40;;;17.90;99.90;;;;;;5045240;28;20070;-58
2022/09/10 08:53:15;;;;;;;16.05;14.55;;;17.90;99.90;;;;;;5047344;28;20029;-62
2022/09/10 08:55:43;;;;;;;15.70;14.20;;;17.90;99.90;;;;;;5048722;28;20021;-58
2022/09/10 08:58:28;;;;;;;17.08;15.30;;;17.80;99.90;;;;;;5042328;28;20307;-58
2022/09/10 09:00:58;;;;;;;13.13;11.82;;;17.90;99.90;;;;;;5047797;28;20036;-58
2022/09/10 09:03:31;;;;;;;13.60;12.38;;;17.90;99.90;;;;;;5052056;28;20020;-58
2022/09/10 09:06:00;;;;;;;12.10;11.02;;;18.00;99.90;;;;;;5046760;28;20029;-57
2022/09/10 09:08:29;;;;;;;11.80;10.82;;;18.00;99.90;;;;;;5045048;28;20744;-58
2022/09/10 09:10:55;;;;;;;;;;;18.20;99.90;;;;;;5049609;28;20048;-58
2022/09/10 09:13:27;;;;;;;10.20;8.95;;;18.30;99.90;;;;;;5045550;28;19909;-58
2022/09/10 09:16:27;;;;;;;8.75;8.02;;;18.30;99.90;;;;;;5045475;28;20094;-57
2022/09/10 09:19:05;;;;;;;7.50;6.72;;;18.30;99.90;;;;;;5042914;28;20041;-58
2022/09/10 09:21:53;;;;;;;8.10;7.30;;;18.30;99.90;;;;;;5043925;28;20025;-58
2022/09/10 09:24:55;;;;;;;8.45;7.45;;;18.40;99.90;;;;;;5047578;28;20024;-58
2022/09/10 09:27:20;;;;;;;6.85;6.18;;;18.40;99.90;;;;;;5042117;28;20333;-58
2022/09/10 09:29:54;;;;;;;7.78;6.82;;;18.40;99.90;;;;;;5045676;28;20079;-58
2022/09/10 09:32:21;;;;;;;6.57;5.97;;;18.60;99.90;;;;;;5047601;28;20053;-58
2022/09/10 09:34:59;;;;;;;7.20;5.97;;;18.70;99.90;;;;;;5050413;28;20037;-58
2022/09/10 09:37:28;;;;;;;5.45;4.78;;;19.00;99.90;;;;;;5050773;28;20060;-59
2022/09/10 09:40:19;;;;;;;6.68;5.45;;;19.10;99.90;;;;;;5050574;28;20056;-58
2022/09/10 09:42:52;;;;;;;5.80;4.97;;;19.20;99.90;;;;;;5049817;28;20489;-58
2022/09/10 09:45:38;;;;;;;5.05;4.63;;;19.20;99.90;;;;;;5049769;28;20040;-58
2022/09/10 09:48:11;;;;;;;4.75;4.25;;;19.20;99.90;;;;;;5049875;28;20021;-58
2022/09/10 09:50:41;;;;;;;6.00;4.72;;;19.30;99.90;;;;;;5043275;28;20139;-58
2022/09/10 09:53:08;;;;;;;;;;;19.40;99.90;;;;;;5044565;28;20115;-58
2022/09/10 09:55:45;;;;;;;5.05;3.03;;;19.30;99.90;;;;;;5037227;28;20218;-58
2022/09/10 09:58:20;;;;;;;4.60;3.50;;;19.40;99.90;;;;;;5042092;28;20802;-58
2022/09/10 10:00:48;;;;;;;4.32;3.63;;;19.50;99.90;;;;;;5050205;28;20082;-58
2022/09/10 10:03:24;;;;;;;6.38;4.45;;;19.40;99.90;;;;;;5047439;28;20363;-58
2022/09/10 10:05:59;;;;;;;4.55;3.67;;;19.30;99.90;;;;;;5036725;28;20013;-58
2022/09/10 10:08:32;;;;;;;3.90;3.47;;;19.20;99.90;;;;;;5048010;28;20021;-58
2022/09/10 10:10:58;;;;;;;3.67;2.60;;;19.10;99.90;;;;;;5034389;28;20032;-58
2022/09/10 10:13:23;;;;;;;2.58;1.98;;;19.10;99.90;;;;;;5031271;28;20030;-58
2022/09/10 10:15:49;;;;;;;2.45;2.05;;;19.10;99.90;;;;;;5047625;28;20013;-58
2022/09/10 10:18:21;;;;;;;3.65;1.85;;;19.00;99.90;;;;;;5049363;28;20420;-57
2022/09/10 10:21:10;;;;;;;5.20;2.47;;;19.00;99.90;;;;;;5050007;28;20481;-57
2022/09/10 10:23:37;;;;;;;3.85;2.45;;;18.90;99.90;;;;;;5043675;28;20082;-58
2022/09/10 10:26:30;;;;;;;2.55;1.83;;;18.90;99.90;;;;;;5046425;28;20037;-58
2022/09/10 10:28:58;;;;;;;3.25;1.92;;;18.90;99.90;;;;;;5045773;28;20094;-58
2022/09/10 10:31:34;;;;;;;5.00;2.20;;;18.80;99.90;;;;;;5048275;28;20028;-58
2022/09/10 10:34:15;;;;;;;5.40;2.10;;;18.80;99.90;;;;;;5045083;28;20119;-58
2022/09/10 10:36:55;;;;;;;3.90;2.35;;;18.80;99.90;;;;;;5046546;28;20463;-58
2022/09/10 10:39:39;;;;;;;3.38;2.17;;;18.80;99.90;;;;;;5048423;28;20055;-58
2022/09/10 10:42:20;;;;;;;5.68;3.47;;;18.80;99.90;;;;;;5048426;28;20403;-58
2022/09/10 10:45:31;;;;;;;5.78;3.30;;;18.60;99.90;;;;;;5049337;28;20078;-58
2022/09/10 10:48:39;;;;;;;4.35;2.70;;;18.60;99.90;;;;;;4998278;28;20429;-58
2022/09/10 10:51:23;;;;;;;3.25;2.03;;;18.60;99.90;;;;;;5039138;28;20025;-58
2022/09/10 10:53:54;;;;;;;3.22;2.33;;;18.50;99.90;;;;;;5049048;28;20090;-58
2022/09/10 10:56:41;;;;;;;4.80;2.55;;;18.60;99.90;;;;;;5048426;28;20449;-58
2022/09/10 10:59:22;;;;;;;3.42;2.97;;;18.70;99.90;;;;;;5049472;28;20024;-58
2022/09/10 11:01:55;;;;;;;5.40;2.97;;;18.70;99.90;;;;;;5047513;28;20037;-58
2022/09/10 11:04:47;;;;;;;3.58;2.80;;;18.70;99.90;;;;;;5043833;28;20649;-58
2022/09/10 11:07:57;;;;;;;5.47;2.53;;;18.70;99.90;;;;;;5048188;28;20079;-58
2022/09/10 11:10:39;;;;;;;4.47;2.03;;;18.60;99.90;;;;;;5049767;28;20121;-58
2022/09/10 11:13:26;;;;;;;4.88;2.50;;;18.60;99.90;;;;;;5045721;28;20103;-58
2022/09/10 11:16:10;;;;;;;3.13;2.35;;;18.60;99.90;;;;;;5048779;28;20449;-58
2022/09/10 11:18:52;;;;;;;3.55;2.30;;;18.60;99.90;;;;;;5049196;28;20027;-58
2022/09/10 11:21:21;;;;;;;2.75;1.92;;;18.70;99.90;;;;;;5049758;28;20028;-58
2022/09/10 11:24:02;;;;;;;2.53;1.75;;;18.70;99.90;;;;;;5051406;28;20034;-58
2022/09/10 11:26:38;;;;;;;2.92;2.53;;;18.70;99.90;;;;;;5035106;28;20486;-58
2022/09/10 11:29:27;;;;;;;4.60;2.70;;;18.80;99.90;;;;;;5042099;28;20021;-58
2022/09/10 11:32:14;;;;;;;3.20;2.65;;;18.70;99.90;;;;;;5036620;28;20104;-58
2022/09/10 11:34:56;;;;;;;4.18;3.22;;;18.70;99.90;;;;;;5042421;28;20021;-58
2022/09/10 11:37:31;;;;;;;4.20;3.83;;;18.80;99.90;;;;;;5047834;28;20546;-59
2022/09/10 11:40:01;;;;;;;5.68;4.70;;;18.80;99.90;;;;;;5053394;28;20059;-58
2022/09/10 11:42:45;;;;;;;5.90;5.25;;;18.90;99.90;;;;;;5034657;28;20038;-61
2022/09/10 11:45:36;;;;;;;5.50;4.88;;;19.10;99.90;;;;;;5028801;28;20388;-58
2022/09/10 11:48:13;;;;;;;5.38;4.85;;;19.60;99.90;;;;;;5040955;28;20022;-58
2022/09/10 11:50:43;;;;;;;5.28;4.80;;;20.30;99.90;;;;;;5039402;28;20052;-58
2022/09/10 11:53:16;;;;;;;6.22;5.72;;;21.10;99.90;;;;;;5038554;28;20033;-58
2022/09/10 11:55:53;;;;;;;6.50;5.90;;;21.90;99.90;;;;;;5042411;28;20045;-58
2022/09/10 11:58:39;;;;;;;5.55;5.15;;;22.40;99.90;;;;;;5041585;28;20023;-58
2022/09/10 12:01:27;;;;;;;5.70;5.18;;;23.10;99.90;;;;;;5043052;28;20559;-59
2022/09/10 12:04:02;;;;;;;5.57;5.13;;;23.70;99.90;;;;;;5062791;28;20025;-59
2022/09/10 12:06:48;;;;;;;5.45;5.05;;;24.20;99.90;;;;;;5038686;28;20017;-58
2022/09/10 12:09:37;;;;;;;4.97;4.55;;;24.60;99.50;;;;;;5042459;28;20070;-58
2022/09/10 12:12:12;;;;;;;4.95;4.45;;;24.50;99.10;;;;;;5044253;28;20404;-58
2022/09/10 12:14:42;;;;;;;7.03;6.32;;;24.20;99.20;;;;;;5038027;28;20021;-59
2022/09/10 12:17:14;;;;;;;6.57;5.97;;;23.80;99.30;;;;;;5040484;28;20029;-58
2022/09/10 12:19:48;;;;;;;7.05;6.18;;;23.50;99.60;;;;;;5044594;28;20115;-58
2022/09/10 12:22:45;;;;;;;7.22;6.53;;;23.20;99.70;;;;;;5040202;28;20022;-59
2022/09/10 12:25:17;;;;;;;6.15;5.50;;;23.00;99.90;;;;;;5023801;28;20041;-58
2022/09/10 12:27:47;;;;;;;6.25;5.72;;;22.80;99.90;;;;;;5048320;28;20021;-58
2022/09/10 12:30:29;;;;;;;7.70;7.00;;;22.70;99.90;;;;;;5062518;28;20029;-58
2022/09/10 12:32:59;;;;;;;8.70;7.85;;;22.60;99.70;;;;;;5047432;28;20028;-58
2022/09/10 12:35:51;;;;;;;8.48;7.78;;;22.50;99.70;;;;;;5049602;28;20028;-58
2022/09/10 12:38:48;;;;;;;8.98;7.45;;;22.40;99.00;;;;;;5046337;28;20516;-58
2022/09/10 12:41:19;;;;;;;5.78;5.28;;;22.40;98.90;;;;;;5047901;28;20025;-58
2022/09/10 12:43:45;;;;;;;4.90;4.47;;;22.60;99.00;;;;;;5052146;28;20028;-58
2022/09/10 12:46:13;;;;;;;4.22;3.83;;;23.50;98.60;;;;;;5055645;28;20018;-58
2022/09/10 12:48:49;;;;;;;5.03;2.97;;;24.80;97.10;;;;;;5041187;28;20455;-58
2022/09/10 12:51:17;;;;;;;3.10;2.90;;;25.30;95.40;;;;;;5069110;28;20476;-59
2022/09/10 12:54:13;;;;;;;3.55;2.80;;;25.30;94.60;;;;;;5053800;28;20021;-58
2022/09/10 12:56:55;;;;;;;1.75;1.65;;;25.10;94.50;;;;;;5062004;28;20104;-58
2022/09/10 13:00:01;;;;;;;1.23;1.13;;;24.90;94.60;;;;;;5060210;28;20017;-59
2022/09/10 13:02:32;;;;;;;1.80;1.52;;;24.70;94.60;;;;;;5045940;28;20163;-58